Time;durP1;ratioP1;P1;durP2;ratioP2;P2;SDS_P1;SDS_P2;PMS_P1;PMS_P2;Temp;Humidity;BMP_temperature;BMP_pressure;BME280_temperature;BME280_humidity;BME280_pressure;Samples;Min_cycle;Max_cycle;Signal;HPM_P1;HPM_P2
2022/07/05 00:02:00;;;;;;;2.42;1.33;;;14.90;99.90;;;;;;4993863;28;20041;-58
2022/07/05 00:04:26;;;;;;;4.28;1.45;;;14.90;99.90;;;;;;4994947;28;20038;-61
2022/07/05 00:09:36;;;;;;;5.85;1.65;;;14.70;99.90;;;;;;4981652;28;20528;-59
2022/07/05 00:12:01;;;;;;;5.18;1.60;;;14.70;99.90;;;;;;4975191;28;20034;-58
2022/07/05 00:14:27;;;;;;;3.97;1.30;;;14.70;99.90;;;;;;4981240;28;20029;-57
2022/07/05 00:16:53;;;;;;;6.50;1.63;;;14.70;99.90;;;;;;4994228;28;20029;-60
2022/07/05 00:19:19;;;;;;;2.85;1.38;;;14.60;99.90;;;;;;4994452;28;20015;-57
2022/07/05 00:21:45;;;;;;;3.53;1.15;;;14.50;99.90;;;;;;4981663;28;20023;-60
2022/07/05 00:24:10;;;;;;;5.68;1.67;;;14.40;99.90;;;;;;4974947;28;20450;-59
2022/07/05 00:26:36;;;;;;;2.55;1.42;;;14.30;99.90;;;;;;4974502;28;20042;-57
2022/07/05 00:29:01;;;;;;;2.75;1.58;;;14.30;99.90;;;;;;4975154;28;20110;-60
2022/07/05 00:31:27;;;;;;;2.67;1.25;;;14.30;99.90;;;;;;4983639;28;20550;-59
2022/07/05 00:33:52;;;;;;;4.15;1.45;;;14.30;99.90;;;;;;4978786;28;20058;-58
2022/07/05 00:36:18;;;;;;;5.82;1.67;;;14.30;99.90;;;;;;4972946;28;20038;-60
2022/07/05 00:38:44;;;;;;;8.68;1.65;;;14.30;99.90;;;;;;4974642;28;20465;-59
2022/07/05 00:41:09;;;;;;;3.75;1.35;;;14.40;99.90;;;;;;4974815;28;20018;-60
2022/07/05 00:43:35;;;;;;;3.45;1.27;;;14.30;99.90;;;;;;4974651;28;20081;-60
2022/07/05 00:46:01;;;;;;;3.10;1.48;;;14.30;99.90;;;;;;4976314;28;20030;-60
2022/07/05 00:48:26;;;;;;;3.50;1.77;;;14.20;99.90;;;;;;4993853;28;20045;-57
2022/07/05 00:50:52;;;;;;;5.80;1.70;;;14.10;99.90;;;;;;4975338;28;20047;-60
2022/07/05 00:53:18;;;;;;;9.25;1.85;;;14.10;99.90;;;;;;4974273;28;20491;-59
2022/07/05 00:55:44;;;;;;;3.92;1.58;;;14.00;99.90;;;;;;4973900;28;20035;-61
2022/07/05 00:58:11;;;;;;;2.30;1.42;;;14.00;99.90;;;;;;4974309;28;20394;-57
2022/07/05 01:00:37;;;;;;;2.70;1.60;;;14.00;99.90;;;;;;4974481;28;20027;-60
2022/07/05 01:03:03;;;;;;;3.67;1.88;;;14.00;99.90;;;;;;4985101;28;20027;-59
2022/07/05 01:05:29;;;;;;;4.47;2.00;;;14.00;99.90;;;;;;4973144;28;20519;-60
2022/07/05 01:07:56;;;;;;;6.78;2.30;;;13.90;99.90;;;;;;4974241;28;20035;-58
2022/07/05 01:10:22;;;;;;;8.95;2.33;;;13.90;99.90;;;;;;4974198;28;20481;-58
2022/07/05 01:12:48;;;;;;;4.75;1.98;;;14.00;99.90;;;;;;4974121;28;20089;-60
2022/07/05 01:15:15;;;;;;;5.68;2.35;;;14.00;99.90;;;;;;4973558;28;20042;-60
2022/07/05 01:17:41;;;;;;;5.28;2.20;;;14.00;99.90;;;;;;4974827;28;20568;-60
2022/07/05 01:20:07;;;;;;;7.47;2.33;;;14.00;99.90;;;;;;4971529;28;20027;-59
2022/07/05 01:22:53;;;;;;;5.30;2.00;;;14.00;99.90;;;;;;4973709;28;20045;-59
2022/07/05 01:25:29;;;;;;;4.85;2.58;;;14.00;99.90;;;;;;4973485;28;20831;-60
2022/07/05 01:27:57;;;;;;;2.05;1.67;;;14.00;99.90;;;;;;4973853;28;20030;-60
2022/07/05 01:30:23;;;;;;;4.10;2.33;;;14.00;99.90;;;;;;4981799;28;20077;-60
2022/07/05 01:32:49;;;;;;;4.40;2.15;;;14.00;99.90;;;;;;4978113;28;20027;-58
2022/07/05 01:35:23;;;;;;;5.50;2.10;;;14.00;99.90;;;;;;4972372;28;20385;-60
2022/07/05 01:37:50;;;;;;;8.45;2.13;;;14.00;99.90;;;;;;4973962;28;20097;-58
2022/07/05 01:40:17;;;;;;;3.17;1.63;;;14.00;99.90;;;;;;4971702;28;20153;-57
2022/07/05 01:42:43;;;;;;;3.67;1.88;;;14.00;99.90;;;;;;4973356;28;20035;-57
2022/07/05 01:45:09;;;;;;;8.77;1.75;;;14.00;99.90;;;;;;4974388;28;20105;-60
2022/07/05 01:47:37;;;;;;;3.70;1.80;;;13.90;99.90;;;;;;4992804;28;20073;-58
2022/07/05 01:50:06;;;;;;;3.65;2.20;;;13.90;99.90;;;;;;4992925;28;20077;-59
2022/07/05 01:52:33;;;;;;;5.63;1.83;;;13.80;99.90;;;;;;4989058;28;20062;-59
2022/07/05 01:55:00;;;;;;;6.45;1.80;;;13.80;99.90;;;;;;4970855;28;20027;-60
2022/07/05 01:57:26;;;;;;;6.70;2.03;;;13.70;99.90;;;;;;4971999;28;20524;-60
2022/07/05 01:59:52;;;;;;;3.38;1.80;;;13.70;99.90;;;;;;4973269;28;20034;-60
2022/07/05 02:02:18;;;;;;;5.35;1.95;;;13.60;99.90;;;;;;4973233;28;20034;-60
2022/07/05 02:04:43;;;;;;;5.95;1.77;;;13.60;99.90;;;;;;4972959;28;20023;-60
2022/07/05 02:07:09;;;;;;;2.88;1.70;;;13.60;99.90;;;;;;4972517;28;20039;-60
2022/07/05 02:09:36;;;;;;;4.22;1.73;;;13.50;99.90;;;;;;4973015;28;20396;-60
2022/07/05 02:12:03;;;;;;;4.65;2.58;;;13.50;99.90;;;;;;4973125;28;20027;-58
2022/07/05 02:14:29;;;;;;;5.82;2.05;;;13.50;99.90;;;;;;4972984;28;20027;-60
2022/07/05 02:16:54;;;;;;;4.22;2.60;;;13.50;99.90;;;;;;4972848;28;20433;-58
2022/07/05 02:19:20;;;;;;;6.80;2.13;;;13.40;99.90;;;;;;4973524;28;20056;-58
2022/07/05 02:21:45;;;;;;;4.65;1.88;;;13.40;99.90;;;;;;4971974;28;20022;-58
2022/07/05 02:24:11;;;;;;;3.47;1.95;;;13.40;99.90;;;;;;4972945;28;20034;-59
2022/07/05 02:26:37;;;;;;;5.43;2.30;;;13.30;99.90;;;;;;4972530;28;20035;-60
2022/07/05 02:29:04;;;;;;;7.47;2.30;;;13.20;99.90;;;;;;4975167;28;20484;-59
2022/07/05 02:31:29;;;;;;;4.47;2.20;;;13.10;99.90;;;;;;4992170;28;20404;-60
2022/07/05 02:33:55;;;;;;;7.72;2.60;;;13.00;99.90;;;;;;4996425;28;20026;-58
2022/07/05 02:36:22;;;;;;;6.90;2.45;;;13.00;99.90;;;;;;4978051;28;20038;-58
2022/07/05 02:38:48;;;;;;;5.22;2.20;;;13.00;99.90;;;;;;4976026;28;20500;-60
2022/07/05 02:41:13;;;;;;;4.50;2.35;;;13.00;99.90;;;;;;4976980;28;20027;-58
2022/07/05 02:43:40;;;;;;;5.55;2.40;;;13.00;99.90;;;;;;4977083;28;20392;-58
2022/07/05 02:46:07;;;;;;;3.65;2.35;;;13.00;99.90;;;;;;4976395;28;20019;-58
2022/07/05 02:48:34;;;;;;;4.55;2.72;;;13.00;99.90;;;;;;4976936;28;20408;-58
2022/07/05 02:51:00;;;;;;;7.15;2.22;;;13.00;99.90;;;;;;4975718;28;20118;-61
2022/07/05 02:53:25;;;;;;;7.90;1.98;;;13.00;99.90;;;;;;4975443;28;20114;-59
2022/07/05 02:55:51;;;;;;;5.18;1.77;;;13.00;99.90;;;;;;4976120;28;20031;-60
2022/07/05 02:58:17;;;;;;;3.17;1.80;;;13.00;99.90;;;;;;4991956;28;20034;-59
2022/07/05 03:00:44;;;;;;;3.58;2.08;;;12.90;99.90;;;;;;4996171;28;20022;-57
2022/07/05 03:03:10;;;;;;;5.95;1.67;;;12.90;99.90;;;;;;4994302;28;20026;-57
2022/07/05 03:05:36;;;;;;;2.95;2.00;;;12.90;99.90;;;;;;4978294;28;20081;-60
2022/07/05 03:08:01;;;;;;;5.38;2.42;;;12.90;99.90;;;;;;4976190;28;20038;-60
2022/07/05 03:10:27;;;;;;;4.03;2.03;;;12.80;99.90;;;;;;4976315;28;20033;-59
2022/07/05 03:12:53;;;;;;;3.33;1.80;;;12.80;99.90;;;;;;4976427;28;20030;-57
2022/07/05 03:15:18;;;;;;;5.13;2.00;;;12.80;99.90;;;;;;4975757;28;20037;-57
2022/07/05 03:17:44;;;;;;;4.10;2.10;;;12.80;99.90;;;;;;4994066;28;20480;-59
2022/07/05 03:20:10;;;;;;;5.65;3.17;;;12.70;99.90;;;;;;4976474;28;20038;-58
2022/07/05 03:22:35;;;;;;;6.20;2.65;;;12.70;99.90;;;;;;4957048;28;20023;-60
2022/07/05 03:25:02;;;;;;;4.20;2.50;;;12.80;99.90;;;;;;4956568;29;20027;-59
2022/07/05 03:27:28;;;;;;;4.97;2.35;;;12.70;99.90;;;;;;4956675;28;20174;-58
2022/07/05 03:29:53;;;;;;;5.85;2.63;;;12.80;99.90;;;;;;4968101;28;20429;-58
2022/07/05 03:32:19;;;;;;;6.88;2.00;;;12.90;99.90;;;;;;4995139;28;20053;-58
2022/07/05 03:34:45;;;;;;;3.92;2.58;;;12.80;99.90;;;;;;4973771;28;20031;-60
2022/07/05 03:37:10;;;;;;;5.05;2.42;;;12.80;99.90;;;;;;4975624;28;20033;-57
2022/07/05 03:39:36;;;;;;;4.35;2.03;;;12.80;99.90;;;;;;4956497;29;20031;-59
2022/07/05 03:42:02;;;;;;;6.15;2.58;;;12.70;99.90;;;;;;4956420;29;20026;-57
2022/07/05 03:44:27;;;;;;;5.35;2.30;;;12.70;99.90;;;;;;4979284;28;20045;-59
2022/07/05 03:46:53;;;;;;;4.57;2.40;;;12.70;99.90;;;;;;4991233;28;20089;-59
2022/07/05 03:49:18;;;;;;;5.18;2.63;;;12.70;99.90;;;;;;4975353;28;20030;-57
2022/07/05 03:51:44;;;;;;;6.30;2.50;;;12.70;99.90;;;;;;4975514;28;20043;-56
2022/07/05 03:54:09;;;;;;;6.22;2.67;;;12.70;99.90;;;;;;4988903;28;20117;-60
2022/07/05 03:56:35;;;;;;;4.80;2.42;;;12.80;99.90;;;;;;4974879;28;20027;-61
2022/07/05 03:59:01;;;;;;;3.95;2.58;;;12.80;99.90;;;;;;4975457;28;20038;-59
2022/07/05 04:01:26;;;;;;;6.60;2.20;;;12.80;99.90;;;;;;4975386;28;20085;-58
2022/07/05 04:03:52;;;;;;;10.73;2.83;;;12.90;99.90;;;;;;4975337;28;20106;-57
2022/07/05 04:06:17;;;;;;;3.63;2.85;;;13.00;99.90;;;;;;4975117;28;20443;-58
2022/07/05 04:08:43;;;;;;;3.63;2.45;;;13.10;99.90;;;;;;4974179;28;20093;-58
2022/07/05 04:11:12;;;;;;;11.43;2.78;;;13.20;99.90;;;;;;4975166;28;20033;-60
2022/07/05 04:13:38;;;;;;;9.18;2.15;;;13.20;99.90;;;;;;4958855;28;20077;-58
2022/07/05 04:16:04;;;;;;;3.88;2.45;;;13.30;99.90;;;;;;4974667;28;20047;-57
2022/07/05 04:18:30;;;;;;;6.90;2.50;;;13.30;99.90;;;;;;4978709;28;20065;-57
2022/07/05 04:20:55;;;;;;;9.18;2.70;;;13.30;99.90;;;;;;4975028;28;20432;-59
2022/07/05 04:23:21;;;;;;;3.58;2.08;;;13.30;99.90;;;;;;4975058;28;20042;-60
2022/07/05 04:25:47;;;;;;;5.68;2.05;;;13.30;99.90;;;;;;4974720;28;20023;-59
2022/07/05 04:28:12;;;;;;;7.22;2.60;;;13.50;99.90;;;;;;4974756;28;20022;-60
2022/07/05 04:30:38;;;;;;;6.05;2.58;;;13.60;99.90;;;;;;4975989;28;20027;-61
2022/07/05 04:33:03;;;;;;;9.20;2.72;;;13.80;99.90;;;;;;4974267;28;20481;-61
2022/07/05 04:35:29;;;;;;;8.98;2.25;;;14.00;99.90;;;;;;4974261;28;20485;-60
2022/07/05 04:37:55;;;;;;;4.22;2.10;;;14.40;99.90;;;;;;4974663;28;20033;-59
2022/07/05 04:40:20;;;;;;;3.50;2.10;;;15.20;99.90;;;;;;4974864;28;20097;-60
2022/07/05 04:42:46;;;;;;;7.00;2.40;;;16.00;99.90;;;;;;4974478;28;20021;-59
2022/07/05 04:45:11;;;;;;;10.10;2.50;;;16.70;99.90;;;;;;4973115;28;20042;-60
2022/07/05 04:47:37;;;;;;;5.25;2.50;;;17.20;99.90;;;;;;4972855;28;20392;-61
2022/07/05 04:50:04;;;;;;;3.08;2.17;;;17.70;99.90;;;;;;4974378;28;20392;-61
2022/07/05 04:52:30;;;;;;;5.60;2.25;;;17.80;99.90;;;;;;4974700;28;20428;-59
2022/07/05 04:54:56;;;;;;;4.00;1.73;;;17.90;99.90;;;;;;4973962;28;20027;-58
2022/07/05 04:57:21;;;;;;;5.22;1.88;;;17.70;99.90;;;;;;4974494;28;20035;-60
2022/07/05 04:59:47;;;;;;;4.70;2.03;;;17.80;99.90;;;;;;4984321;28;20102;-60
2022/07/05 05:02:13;;;;;;;2.30;1.60;;;17.40;99.90;;;;;;4978302;28;20022;-60
2022/07/05 05:04:38;;;;;;;4.72;2.45;;;17.10;99.90;;;;;;4973976;28;20031;-61
2022/07/05 05:07:04;;;;;;;3.28;1.73;;;16.60;99.90;;;;;;4973952;28;20124;-61
2022/07/05 05:09:30;;;;;;;4.18;2.10;;;16.10;99.90;;;;;;4974069;28;20366;-60
2022/07/05 05:11:56;;;;;;;8.60;2.95;;;16.10;99.90;;;;;;4973959;28;20034;-59
2022/07/05 05:14:21;;;;;;;7.47;2.10;;;16.60;99.90;;;;;;4972709;28;20033;-60
2022/07/05 05:16:47;;;;;;;3.25;1.60;;;17.40;99.90;;;;;;4973635;28;20023;-62
2022/07/05 05:19:13;;;;;;;5.80;2.00;;;19.00;99.90;;;;;;4974162;28;20102;-59
2022/07/05 05:21:38;;;;;;;2.70;1.40;;;20.50;98.90;;;;;;4973870;28;20453;-61
2022/07/05 05:24:04;;;;;;;4.15;1.70;;;21.40;96.80;;;;;;4975352;28;20030;-61
2022/07/05 05:26:30;;;;;;;2.38;1.40;;;23.00;93.30;;;;;;4992708;28;20033;-61
2022/07/05 05:28:56;;;;;;;5.05;1.67;;;24.10;90.40;;;;;;4984902;28;20131;-62
2022/07/05 05:31:21;;;;;;;3.33;1.45;;;23.80;88.60;;;;;;4978444;28;20083;-61
2022/07/05 05:33:47;;;;;;;2.17;1.35;;;23.40;88.40;;;;;;4993026;28;20196;-62
2022/07/05 05:36:13;;;;;;;2.63;1.10;;;24.10;86.30;;;;;;4992678;28;20037;-62
2022/07/05 05:38:38;;;;;;;2.25;1.10;;;24.40;84.90;;;;;;4992945;28;20034;-60
2022/07/05 05:41:04;;;;;;;3.05;1.23;;;24.80;83.20;;;;;;4993288;28;20101;-60
2022/07/05 05:43:30;;;;;;;4.72;1.40;;;25.10;83.80;;;;;;4981493;28;20086;-61
2022/07/05 05:45:56;;;;;;;2.17;1.77;;;26.00;80.00;;;;;;4973320;28;20034;-60
2022/07/05 05:48:22;;;;;;;2.78;1.35;;;25.90;77.70;;;;;;4973382;28;20023;-61
2022/07/05 05:50:48;;;;;;;2.13;1.23;;;26.40;78.00;;;;;;4973587;28;20034;-62
2022/07/05 05:53:14;;;;;;;2.55;1.83;;;26.70;77.00;;;;;;4973312;28;20023;-60
2022/07/05 05:55:41;;;;;;;4.43;1.58;;;27.70;75.50;;;;;;4972816;28;20045;-61
2022/07/05 05:58:15;;;;;;;2.95;1.27;;;27.70;74.20;;;;;;4971963;28;20034;-62
2022/07/05 06:00:41;;;;;;;3.85;1.50;;;27.10;74.60;;;;;;4979786;28;20043;-61
2022/07/05 06:03:07;;;;;;;4.10;1.50;;;27.80;74.60;;;;;;4973129;28;20038;-62
2022/07/05 06:05:33;;;;;;;4.13;1.60;;;28.80;70.60;;;;;;4973033;28;20027;-61
2022/07/05 06:07:58;;;;;;;1.98;1.20;;;29.80;68.80;;;;;;4972625;28;20034;-58
2022/07/05 06:10:29;;;;;;;3.10;1.88;;;29.10;67.20;;;;;;4973189;28;20034;-58
2022/07/05 06:12:57;;;;;;;5.82;1.70;;;28.40;69.90;;;;;;4973639;28;20030;-58
2022/07/05 06:15:23;;;;;;;2.63;1.65;;;28.30;70.50;;;;;;4972661;28;20106;-59
2022/07/05 06:17:49;;;;;;;3.25;1.27;;;29.60;68.70;;;;;;4972902;28;20481;-59
2022/07/05 06:20:17;;;;;;;3.20;1.30;;;29.60;67.70;;;;;;4973968;28;20031;-59
2022/07/05 06:22:43;;;;;;;5.00;1.45;;;29.70;67.00;;;;;;4972969;28;20033;-59
2022/07/05 06:25:09;;;;;;;7.22;1.60;;;29.10;66.50;;;;;;4972756;28;20027;-59
2022/07/05 06:27:40;;;;;;;7.70;1.63;;;29.30;67.70;;;;;;4971524;28;20447;-59
2022/07/05 06:30:07;;;;;;;4.85;1.45;;;29.10;67.50;;;;;;4972848;28;20049;-56
2022/07/05 06:32:32;;;;;;;4.75;2.00;;;30.70;64.20;;;;;;4972648;28;20062;-60
2022/07/05 06:34:58;;;;;;;7.03;1.83;;;29.50;65.80;;;;;;4988606;28;20069;-59
2022/07/05 06:37:23;;;;;;;2.92;1.50;;;31.10;64.20;;;;;;4991811;28;20030;-59
2022/07/05 06:39:49;;;;;;;3.22;1.27;;;31.90;63.20;;;;;;4988746;28;20637;-59
2022/07/05 06:42:15;;;;;;;7.82;2.33;;;32.10;62.00;;;;;;4972609;28;20059;-59
2022/07/05 06:44:41;;;;;;;4.28;1.50;;;32.20;61.40;;;;;;4972439;28;20378;-58
2022/07/05 06:47:07;;;;;;;4.68;1.65;;;31.20;62.60;;;;;;4972607;28;20030;-59
2022/07/05 06:49:33;;;;;;;6.63;2.05;;;31.10;63.50;;;;;;4972675;28;20035;-60
2022/07/05 06:51:59;;;;;;;3.33;1.73;;;31.60;60.70;;;;;;4973154;28;20035;-59
2022/07/05 06:54:24;;;;;;;6.45;1.88;;;31.90;61.20;;;;;;4971393;28;20031;-60
2022/07/05 06:56:50;;;;;;;4.05;1.40;;;30.90;62.30;;;;;;4972007;28;20066;-60
2022/07/05 06:59:16;;;;;;;7.43;1.95;;;31.10;62.50;;;;;;4972616;28;20019;-61
2022/07/05 07:01:41;;;;;;;6.18;1.70;;;31.80;60.90;;;;;;4972742;28;20094;-60
2022/07/05 07:04:07;;;;;;;4.53;1.50;;;31.50;60.20;;;;;;4972971;28;20488;-60
2022/07/05 07:06:32;;;;;;;4.47;1.65;;;31.00;60.90;;;;;;4972367;28;20027;-61
2022/07/05 07:11:42;;;;;;;5.45;1.90;;;32.60;59.60;;;;;;4972612;28;20034;-61
2022/07/05 07:14:08;;;;;;;4.80;1.95;;;32.10;57.60;;;;;;4972485;28;20031;-61
2022/07/05 07:16:34;;;;;;;3.30;1.45;;;31.20;59.50;;;;;;4988338;28;20036;-61
2022/07/05 07:18:59;;;;;;;2.78;1.20;;;31.10;58.90;;;;;;4992583;28;20026;-60
2022/07/05 07:21:25;;;;;;;3.67;1.83;;;31.70;59.80;;;;;;4995535;28;20025;-60
2022/07/05 07:23:50;;;;;;;4.63;2.17;;;31.90;58.10;;;;;;4985123;28;20038;-60
2022/07/05 07:26:16;;;;;;;2.30;1.55;;;31.50;58.50;;;;;;4975377;28;20023;-62
2022/07/05 07:28:42;;;;;;;3.45;1.75;;;32.20;59.40;;;;;;4978559;28;20030;-61
2022/07/05 07:31:08;;;;;;;4.60;1.58;;;31.90;57.40;;;;;;4994928;28;20388;-60
2022/07/05 07:33:34;;;;;;;2.67;1.60;;;32.40;58.20;;;;;;4995154;28;20068;-60
2022/07/05 07:36:00;;;;;;;4.43;1.60;;;32.30;57.20;;;;;;4995038;28;20058;-60
2022/07/05 07:38:26;;;;;;;3.05;1.75;;;32.50;58.00;;;;;;4985221;28;20038;-62
2022/07/05 07:40:52;;;;;;;2.60;1.60;;;32.80;57.60;;;;;;4975788;28;20031;-61
2022/07/05 07:43:18;;;;;;;3.40;1.83;;;34.40;55.80;;;;;;4984421;28;20034;-60
2022/07/05 07:45:43;;;;;;;4.18;1.85;;;33.40;56.40;;;;;;4995073;28;20161;-61
2022/07/05 07:48:09;;;;;;;4.45;1.65;;;33.00;52.90;;;;;;4995030;28;20451;-60
2022/07/05 07:50:35;;;;;;;4.75;1.60;;;32.70;54.90;;;;;;4995046;28;20477;-61
2022/07/05 07:53:01;;;;;;;2.53;1.83;;;32.80;54.20;;;;;;4983147;28;20054;-59
2022/07/05 07:55:26;;;;;;;4.85;1.90;;;33.40;53.60;;;;;;4974671;28;20413;-61
2022/07/05 07:57:52;;;;;;;6.97;2.25;;;32.60;53.20;;;;;;4975513;28;20034;-60
2022/07/05 08:00:18;;;;;;;2.65;1.50;;;31.60;55.40;;;;;;4975630;28;20031;-60
2022/07/05 08:02:44;;;;;;;3.72;1.60;;;31.00;58.40;;;;;;4979132;28;20428;-60
2022/07/05 08:05:10;;;;;;;4.70;1.55;;;31.20;56.40;;;;;;4994472;28;20034;-60
2022/07/05 08:07:38;;;;;;;3.20;1.40;;;31.60;56.60;;;;;;4982026;28;20027;-58
2022/07/05 08:10:05;;;;;;;2.10;1.50;;;31.90;57.80;;;;;;4975011;28;20452;-59
2022/07/05 08:12:30;;;;;;;3.53;1.90;;;32.20;54.90;;;;;;4975591;28;20050;-59
2022/07/05 08:14:56;;;;;;;3.53;1.40;;;32.70;55.20;;;;;;4994245;28;20030;-60
2022/07/05 08:17:21;;;;;;;10.05;1.83;;;33.10;55.40;;;;;;4994615;28;20019;-60
2022/07/05 08:22:32;;;;;;;3.10;1.15;;;33.50;54.00;;;;;;4977277;28;20113;-60
2022/07/05 08:24:57;;;;;;;4.47;1.50;;;33.00;53.50;;;;;;4974537;28;20071;-60
2022/07/05 08:27:24;;;;;;;2.90;1.70;;;34.30;55.50;;;;;;4982339;28;20049;-60
2022/07/05 08:29:49;;;;;;;5.35;1.50;;;34.90;51.90;;;;;;4993994;28;20034;-59
2022/07/05 08:32:15;;;;;;;2.88;1.35;;;33.80;52.00;;;;;;4993727;28;20032;-61
2022/07/05 08:34:41;;;;;;;4.15;1.90;;;32.70;53.50;;;;;;4993900;28;20031;-61
2022/07/05 08:37:07;;;;;;;8.00;1.40;;;32.20;53.70;;;;;;4974061;28;20089;-60
2022/07/05 08:39:33;;;;;;;5.63;1.50;;;32.60;54.70;;;;;;4974469;28;20557;-60
2022/07/05 08:41:59;;;;;;;3.38;2.03;;;33.20;54.10;;;;;;4974781;28;20109;-60
2022/07/05 08:44:30;;;;;;;4.18;1.40;;;33.40;52.70;;;;;;4976604;28;20085;-61
2022/07/05 08:46:57;;;;;;;2.88;1.60;;;33.50;53.00;;;;;;4974242;28;20109;-61
2022/07/05 08:49:24;;;;;;;3.75;1.58;;;33.30;52.50;;;;;;4973453;28;20041;-60
2022/07/05 08:51:51;;;;;;;4.15;1.50;;;33.40;51.70;;;;;;4974270;28;20408;-59
2022/07/05 08:54:17;;;;;;;3.35;1.48;;;33.20;50.80;;;;;;4972601;28;20493;-60
2022/07/05 08:56:44;;;;;;;2.65;0.95;;;32.40;51.40;;;;;;4973774;28;20500;-60
2022/07/05 08:59:09;;;;;;;2.53;1.40;;;31.40;51.90;;;;;;4973590;28;20067;-59
2022/07/05 09:01:36;;;;;;;3.25;1.20;;;31.90;52.60;;;;;;4974186;28;20484;-60
2022/07/05 09:04:05;;;;;;;4.47;1.38;;;32.30;51.40;;;;;;4977068;28;20031;-60
2022/07/05 09:06:34;;;;;;;3.95;1.50;;;31.90;51.70;;;;;;4973948;28;20031;-60
2022/07/05 09:09:02;;;;;;;2.83;1.02;;;31.60;51.40;;;;;;4974045;28;20102;-59
2022/07/05 09:11:41;;;;;;;4.45;1.38;;;31.40;50.40;;;;;;4974111;28;20030;-60
2022/07/05 09:14:21;;;;;;;3.63;1.38;;;31.90;51.40;;;;;;4973916;28;20027;-60
2022/07/05 09:16:46;;;;;;;3.05;1.20;;;32.10;52.20;;;;;;4973966;28;20061;-61
2022/07/05 09:19:12;;;;;;;2.97;1.42;;;32.60;51.70;;;;;;4975288;28;20580;-60
2022/07/05 09:21:38;;;;;;;4.28;1.52;;;33.30;52.00;;;;;;4973897;28;20031;-60
2022/07/05 09:24:09;;;;;;;6.18;1.50;;;33.70;51.30;;;;;;4973881;28;20038;-61
2022/07/05 09:26:38;;;;;;;4.70;1.35;;;33.40;51.10;;;;;;4973461;28;20436;-61
2022/07/05 09:29:10;;;;;;;3.20;1.38;;;32.60;50.10;;;;;;4973783;28;20491;-61
2022/07/05 09:31:37;;;;;;;;;;;32.20;51.10;;;;;;4973672;28;20030;-61
2022/07/05 09:34:10;;;;;;;2.67;1.00;;;32.00;51.30;;;;;;4973114;28;19914;-61
2022/07/05 09:36:56;;;;;;;5.30;1.50;;;32.70;50.40;;;;;;4965250;28;20555;-61
2022/07/05 09:39:33;;;;;;;3.75;1.30;;;32.80;50.30;;;;;;4973641;28;20023;-60
2022/07/05 09:42:19;;;;;;;2.47;1.23;;;33.00;51.50;;;;;;4972847;28;20115;-60
2022/07/05 09:44:50;;;;;;;2.80;1.45;;;32.70;50.30;;;;;;4973196;28;20023;-61
2022/07/05 09:47:18;;;;;;;3.60;1.20;;;31.70;50.00;;;;;;4973124;28;20097;-60
2022/07/05 09:49:49;;;;;;;2.10;1.17;;;30.60;52.30;;;;;;4972446;28;20058;-60
2022/07/05 09:52:39;;;;;;;2.65;1.15;;;29.90;52.70;;;;;;4970514;28;20440;-58
2022/07/05 09:55:10;;;;;;;3.53;1.45;;;29.20;53.60;;;;;;4965526;28;20179;-56
2022/07/05 09:57:40;;;;;;;4.82;1.20;;;29.40;53.60;;;;;;4973341;28;20027;-58
2022/07/05 10:00:16;;;;;;;4.30;1.60;;;29.90;53.00;;;;;;4973591;28;20019;-60
2022/07/05 10:02:53;;;;;;;1.67;1.27;;;30.40;54.20;;;;;;4973368;28;20025;-61
2022/07/05 10:05:24;;;;;;;5.47;2.05;;;31.30;51.60;;;;;;4973777;28;20103;-60
2022/07/05 10:07:51;;;;;;;1.77;1.10;;;30.70;50.20;;;;;;4973122;28;20039;-61
2022/07/05 10:10:19;;;;;;;3.58;1.25;;;30.70;50.40;;;;;;4973226;28;20045;-58
2022/07/05 10:12:48;;;;;;;4.60;1.40;;;30.50;50.80;;;;;;4973107;28;20496;-59
2022/07/05 10:15:18;;;;;;;4.00;1.20;;;30.40;51.80;;;;;;4972672;28;20034;-58
2022/07/05 10:18:04;;;;;;;5.70;1.45;;;30.40;51.90;;;;;;4973787;28;20509;-60
2022/07/05 10:20:41;;;;;;;7.43;1.48;;;30.20;50.70;;;;;;4973990;28;20084;-59
2022/07/05 10:23:12;;;;;;;4.03;1.50;;;30.10;52.00;;;;;;4972906;28;20022;-59
2022/07/05 10:25:40;;;;;;;3.60;1.80;;;29.40;51.70;;;;;;4972747;28;20077;-58
2022/07/05 10:28:08;;;;;;;4.03;1.80;;;28.70;53.00;;;;;;4972881;28;20105;-57
2022/07/05 10:30:35;;;;;;;3.17;1.65;;;28.30;54.90;;;;;;4972430;28;20478;-58
2022/07/05 10:33:06;;;;;;;5.25;1.90;;;28.30;53.70;;;;;;4982015;28;20453;-56
2022/07/05 10:35:32;;;;;;;3.55;1.50;;;28.20;52.40;;;;;;4971362;28;20023;-57
2022/07/05 10:38:02;;;;;;;10.90;1.70;;;27.90;54.50;;;;;;4972690;28;20030;-58
2022/07/05 10:40:31;;;;;;;4.95;1.77;;;28.10;54.10;;;;;;4972785;28;20382;-58
2022/07/05 10:43:02;;;;;;;3.08;1.58;;;27.80;52.40;;;;;;4972811;28;20536;-59
2022/07/05 10:45:34;;;;;;;6.50;1.70;;;28.40;54.10;;;;;;4973811;28;20092;-59
2022/07/05 10:48:18;;;;;;;4.15;1.80;;;28.30;52.80;;;;;;4989510;28;20045;-59
2022/07/05 10:50:57;;;;;;;4.05;1.92;;;27.80;54.30;;;;;;4965942;28;20023;-56
2022/07/05 10:53:43;;;;;;;4.45;1.70;;;28.00;53.80;;;;;;4974127;28;20038;-59
2022/07/05 10:56:08;;;;;;;3.53;1.40;;;28.00;54.60;;;;;;4965458;28;20207;-56
2022/07/05 10:58:40;;;;;;;3.90;1.52;;;27.80;55.70;;;;;;4976480;28;20122;-58
2022/07/05 11:01:12;;;;;;;4.83;1.80;;;27.80;54.60;;;;;;4980237;28;20031;-58
2022/07/05 11:03:40;;;;;;;3.45;1.58;;;27.70;54.90;;;;;;4977160;28;20286;-56
2022/07/05 11:06:07;;;;;;;4.45;1.83;;;27.90;54.60;;;;;;4976000;28;20408;-58
2022/07/05 11:08:55;;;;;;;5.15;1.92;;;27.70;54.80;;;;;;4976519;28;20031;-57
2022/07/05 11:11:34;;;;;;;3.10;1.90;;;27.30;55.50;;;;;;4976245;28;20673;-56
2022/07/05 11:14:02;;;;;;;4.55;1.50;;;27.20;56.00;;;;;;4976097;28;20034;-58
2022/07/05 11:16:31;;;;;;;5.43;1.90;;;26.50;56.60;;;;;;4974509;28;20037;-59
2022/07/05 11:19:10;;;;;;;4.97;1.50;;;26.50;57.70;;;;;;4976854;28;20034;-58
2022/07/05 11:21:38;;;;;;;5.05;1.52;;;26.40;58.30;;;;;;4992373;28;20026;-59
2022/07/05 11:24:28;;;;;;;2.53;1.58;;;26.40;55.20;;;;;;4995815;28;20057;-57
2022/07/05 11:26:58;;;;;;;3.05;1.70;;;26.90;56.10;;;;;;4995153;28;20030;-59
2022/07/05 11:29:44;;;;;;;2.42;1.38;;;27.40;56.80;;;;;;4995453;28;20677;-58
2022/07/05 11:32:18;;;;;;;6.40;1.40;;;27.80;56.70;;;;;;4976617;28;20027;-59
2022/07/05 11:34:46;;;;;;;4.00;1.50;;;27.80;53.60;;;;;;4975665;28;20026;-59
2022/07/05 11:37:24;;;;;;;4.40;1.85;;;27.90;54.70;;;;;;4975657;28;20401;-59
2022/07/05 11:40:11;;;;;;;3.30;1.55;;;27.80;55.40;;;;;;4975902;28;20027;-58
2022/07/05 11:42:47;;;;;;;5.05;2.00;;;27.60;55.10;;;;;;4978327;28;20107;-59
2022/07/05 11:45:13;;;;;;;3.25;1.50;;;27.20;55.60;;;;;;4975304;28;20033;-59
2022/07/05 11:47:40;;;;;;;9.25;1.50;;;26.90;56.30;;;;;;4975591;28;20110;-59
2022/07/05 11:50:07;;;;;;;2.97;1.50;;;26.50;56.20;;;;;;4975887;28;20102;-58
2022/07/05 11:52:34;;;;;;;4.65;1.88;;;26.20;57.00;;;;;;4975524;28;20027;-58
2022/07/05 11:55:19;;;;;;;6.78;1.85;;;25.90;57.10;;;;;;4976798;28;20097;-58
2022/07/05 11:57:50;;;;;;;5.72;1.75;;;26.20;58.10;;;;;;4975341;28;20140;-59
2022/07/05 12:00:36;;;;;;;3.53;1.60;;;26.10;57.60;;;;;;4975970;28;20519;-55
2022/07/05 12:03:13;;;;;;;3.10;1.42;;;26.30;59.70;;;;;;4978995;28;20030;-58
2022/07/05 12:05:40;;;;;;;2.13;1.27;;;26.50;58.30;;;;;;4966595;28;20027;-58
2022/07/05 12:08:06;;;;;;;3.30;1.50;;;26.70;56.90;;;;;;4973936;28;20101;-57
2022/07/05 12:13:16;;;;;;;4.70;1.10;;;26.80;55.90;;;;;;4975445;28;20133;-58
2022/07/05 12:15:42;;;;;;;2.83;1.50;;;26.60;56.00;;;;;;4974783;28;20054;-57
2022/07/05 12:18:08;;;;;;;2.97;1.65;;;26.30;56.00;;;;;;4974906;28;20147;-58
2022/07/05 12:20:37;;;;;;;7.28;1.70;;;26.10;57.10;;;;;;4975222;28;20023;-58
2022/07/05 12:23:03;;;;;;;7.65;1.75;;;26.30;58.20;;;;;;4980459;28;20207;-57
2022/07/05 12:25:31;;;;;;;11.13;2.20;;;26.30;58.10;;;;;;4975373;28;20042;-59
2022/07/05 12:27:58;;;;;;;5.05;1.90;;;26.40;57.80;;;;;;4975085;28;20085;-59
2022/07/05 12:30:24;;;;;;;6.15;1.92;;;26.30;57.00;;;;;;4974346;28;20031;-58
2022/07/05 12:32:56;;;;;;;2.92;1.20;;;26.40;59.70;;;;;;4974852;28;20103;-58
2022/07/05 12:35:41;;;;;;;8.70;2.10;;;25.90;60.40;;;;;;4974300;28;20027;-58
2022/07/05 12:38:09;;;;;;;3.85;1.27;;;25.60;59.40;;;;;;4981752;28;20022;-57
2022/07/05 12:40:41;;;;;;;3.42;1.30;;;25.60;59.40;;;;;;4973667;28;20019;-58
2022/07/05 12:43:18;;;;;;;3.80;1.67;;;25.60;58.80;;;;;;4970791;28;20059;-59
2022/07/05 12:46:03;;;;;;;3.78;2.03;;;25.70;59.20;;;;;;4974289;28;20641;-58
2022/07/05 12:48:34;;;;;;;4.40;1.70;;;25.90;57.90;;;;;;4974542;28;20113;-57
2022/07/05 12:51:00;;;;;;;5.10;2.13;;;25.80;56.20;;;;;;4988854;28;20037;-57
2022/07/05 12:58:59;;;;;;;4.15;1.75;;;25.70;58.00;;;;;;4974657;28;20065;-57
2022/07/05 13:01:31;;;;;;;3.05;1.45;;;25.60;58.00;;;;;;4974178;28;20026;-58
2022/07/05 13:03:58;;;;;;;10.33;1.50;;;25.70;57.70;;;;;;4991117;28;20038;-57
2022/07/05 13:06:46;;;;;;;6.28;1.55;;;25.70;58.90;;;;;;4985284;28;20023;-57
2022/07/05 13:09:13;;;;;;;3.58;1.42;;;25.60;57.00;;;;;;4974569;28;20031;-58